Time,TemperatureF,DewpointF,PressureIn,WindDirection,WindDirectionDegrees,WindSpeedMPH,WindSpeedGustMPH,Humidity,HourlyPrecipIn,Conditions,Clouds,dailyrainin,SoftwareType,DateUTC
2013-06-20 00:22:00,56.0,55.0,30.80,East,84,0.0,0.3,95,0.00,,,0.00,TxWx,2013-06-20 04:22:00,
2013-06-20 00:27:00,55.8,55.0,30.80,East,83,0.0,0.0,95,0.00,,,0.00,TxWx,2013-06-20 04:27:00,
2013-06-20 00:34:00,55.5,54.0,30.80,East,83,0.0,0.3,95,0.00,,,0.00,TxWx,2013-06-20 04:34:00,
2013-06-20 00:39:00,55.4,54.0,30.81,East,84,0.6,0.6,96,0.00,,,0.00,TxWx,2013-06-20 04:39:00,
2013-06-20 00:44:00,55.2,54.0,30.81,East,83,0.0,0.0,96,0.00,,,0.00,TxWx,2013-06-20 04:44:00,
2013-06-20 00:49:00,55.1,54.0,30.81,East,83,0.0,0.0,96,0.00,,,0.00,TxWx,2013-06-20 04:49:00,
2013-06-20 00:54:00,55.0,54.0,30.81,East,83,0.0,0.0,97,0.00,,,0.00,TxWx,2013-06-20 04:54:00,
2013-06-20 01:00:00,54.9,54.0,30.81,East,83,0.0,0.0,97,0.00,,,0.00,TxWx,2013-06-20 05:00:00,
2013-06-20 01:05:00,54.7,54.0,30.81,East,83,0.0,0.0,97,0.00,,,0.00,TxWx,2013-06-20 05:05:00,
2013-06-20 01:10:00,54.6,54.0,30.81,East,84,0.0,0.0,97,0.00,,,0.00,TxWx,2013-06-20 05:10:00,
2013-06-20 01:15:00,54.6,54.0,30.81,East,84,0.0,0.0,97,0.00,,,0.00,TxWx,2013-06-20 05:15:00,
2013-06-20 01:20:00,54.6,54.0,30.81,East,84,0.0,0.0,97,0.00,,,0.00,TxWx,2013-06-20 05:20:00,
2013-06-20 01:25:00,54.5,53.0,30.81,East,84,0.0,0.0,97,0.00,,,0.00,TxWx,2013-06-20 05:25:00,
2013-06-20 01:31:00,54.3,53.0,30.81,East,84,0.0,0.0,97,0.00,,,0.00,TxWx,2013-06-20 05:31:00,
2013-06-20 01:36:00,54.2,53.0,30.81,East,83,0.0,0.0,97,0.00,,,0.00,TxWx,2013-06-20 05:36:00,
2013-06-20 01:41:00,54.1,53.0,30.81,East,83,0.0,0.0,98,0.00,,,0.00,TxWx,2013-06-20 05:41:00,
2013-06-20 01:46:00,54.1,53.0,30.81,East,83,0.0,0.0,98,0.00,,,0.00,TxWx,2013-06-20 05:46:00,
2013-06-20 01:51:00,53.9,53.0,30.81,East,83,0.0,0.0,98,0.00,,,0.00,TxWx,2013-06-20 05:51:00,
2013-06-20 01:56:00,53.7,53.0,30.81,East,83,0.0,0.0,98,0.00,,,0.00,TxWx,2013-06-20 05:56:00,
2013-06-20 02:01:00,53.5,52.0,30.81,East,84,0.0,0.0,98,0.00,,,0.00,TxWx,2013-06-20 06:01:00,
2013-06-20 02:07:00,53.5,52.0,30.81,East,84,0.0,0.0,98,0.00,,,0.00,TxWx,2013-06-20 06:07:00,
2013-06-20 02:12:00,53.3,52.0,30.82,East,84,0.0,0.0,98,0.00,,,0.00,TxWx,2013-06-20 06:12:00,
2013-06-20 02:17:00,53.2,52.0,30.82,East,83,1.5,1.8,98,0.00,,,0.00,TxWx,2013-06-20 06:17:00,
2013-06-20 02:22:00,53.1,52.0,30.82,East,83,0.6,0.9,98,0.00,,,0.00,TxWx,2013-06-20 06:22:00,
2013-06-20 02:27:00,53.0,52.0,30.82,East,84,0.0,0.0,98,0.00,,,0.00,TxWx,2013-06-20 06:27:00,
2013-06-20 02:32:00,53.0,52.0,30.83,East,84,0.0,0.0,98,0.00,,,0.00,TxWx,2013-06-20 06:32:00,
2013-06-20 02:38:00,52.9,52.0,30.83,East,83,0.0,0.0,98,0.00,,,0.00,TxWx,2013-06-20 06:38:00,
2013-06-20 02:43:00,52.8,52.0,30.83,East,83,0.0,0.0,98,0.00,,,0.00,TxWx,2013-06-20 06:43:00,
2013-06-20 02:48:00,52.8,53.0,30.83,East,83,0.0,0.0,99,0.00,,,0.00,TxWx,2013-06-20 06:48:00,
2013-06-20 02:53:00,52.8,53.0,30.83,East,83,0.0,0.0,99,0.00,,,0.00,TxWx,2013-06-20 06:53:00,
2013-06-20 02:58:00,52.7,53.0,30.83,East,83,0.0,0.0,99,0.00,,,0.00,TxWx,2013-06-20 06:58:00,
2013-06-20 03:03:00,52.6,53.0,30.83,East,84,1.2,1.2,99,0.00,,,0.00,TxWx,2013-06-20 07:03:00,
2013-06-20 03:08:00,52.5,52.0,30.83,East,83,2.4,2.4,99,0.00,,,0.00,TxWx,2013-06-20 07:08:00,
2013-06-20 03:13:00,52.5,53.0,30.83,East,84,1.8,2.1,99,0.00,,,0.00,TxWx,2013-06-20 07:13:00,
2013-06-20 03:18:00,52.5,52.0,30.82,East,83,1.2,1.5,99,0.00,,,0.00,TxWx,2013-06-20 07:18:00,
2013-06-20 03:24:00,52.6,53.0,30.82,East,83,0.0,0.0,99,0.00,,,0.00,TxWx,2013-06-20 07:24:00,
2013-06-20 03:29:00,52.5,52.0,30.82,East,83,0.0,0.0,99,0.00,,,0.00,TxWx,2013-06-20 07:29:00,
2013-06-20 03:34:00,52.2,52.0,30.82,East,83,0.0,0.0,99,0.00,,,0.00,TxWx,2013-06-20 07:34:00,
2013-06-20 03:39:00,52.1,52.0,30.83,East,83,0.9,0.9,99,0.00,,,0.00,TxWx,2013-06-20 07:39:00,
2013-06-20 03:44:00,51.8,52.0,30.82,East,83,1.5,1.8,99,0.00,,,0.00,TxWx,2013-06-20 07:44:00,
2013-06-20 03:50:00,51.6,52.0,30.83,East,83,1.5,1.5,99,0.00,,,0.00,TxWx,2013-06-20 07:50:00,
2013-06-20 03:55:00,51.5,51.0,30.83,East,83,2.1,2.4,99,0.00,,,0.00,TxWx,2013-06-20 07:55:00,
2013-06-20 04:00:00,51.3,51.0,30.83,East,83,2.7,2.7,99,0.00,,,0.00,TxWx,2013-06-20 08:00:00,
2013-06-20 04:05:00,51.2,51.0,30.83,East,83,2.1,2.1,99,0.00,,,0.00,TxWx,2013-06-20 08:05:00,
2013-06-20 04:11:00,51.1,51.0,30.83,East,83,0.6,0.6,99,0.00,,,0.00,TxWx,2013-06-20 08:11:00,
2013-06-20 04:16:00,51.1,51.0,30.83,East,83,0.0,0.0,99,0.00,,,0.00,TxWx,2013-06-20 08:16:00,
2013-06-20 04:21:00,51.1,51.0,30.84,East,82,0.9,1.2,99,0.00,,,0.00,TxWx,2013-06-20 08:21:00,
2013-06-20 04:26:00,51.0,51.0,30.84,East,83,1.8,2.1,99,0.00,,,0.00,TxWx,2013-06-20 08:26:00,
2013-06-20 04:31:00,50.8,51.0,30.84,East,82,0.6,0.9,99,0.00,,,0.00,TxWx,2013-06-20 08:31:00,
2013-06-20 04:37:00,50.7,51.0,30.84,East,83,1.8,1.8,99,0.00,,,0.00,TxWx,2013-06-20 08:37:00,
2013-06-20 04:42:00,50.7,51.0,30.84,East,83,1.2,1.5,99,0.00,,,0.00,TxWx,2013-06-20 08:42:00,
2013-06-20 04:47:00,50.7,51.0,30.84,East,83,0.3,0.3,99,0.00,,,0.00,TxWx,2013-06-20 08:47:00,
2013-06-20 04:52:00,50.6,51.0,30.85,East,83,3.0,3.0,99,0.00,,,0.00,TxWx,2013-06-20 08:52:00,
2013-06-20 04:57:00,50.5,51.0,30.85,East,82,0.9,1.2,99,0.00,,,0.00,TxWx,2013-06-20 08:57:00,
2013-06-20 05:02:00,50.4,50.0,30.85,East,83,1.2,1.2,99,0.00,,,0.00,TxWx,2013-06-20 09:02:00,
2013-06-20 05:08:00,50.4,50.0,30.85,East,83,0.6,0.6,99,0.00,,,0.00,TxWx,2013-06-20 09:08:00,
2013-06-20 05:13:00,50.4,50.0,30.85,East,83,1.2,1.2,99,0.00,,,0.00,TxWx,2013-06-20 09:13:00,
2013-06-20 05:18:00,50.3,50.0,30.86,East,83,1.2,1.5,99,0.00,,,0.00,TxWx,2013-06-20 09:18:00,
2013-06-20 05:23:00,50.2,49.0,30.86,East,84,1.2,1.2,98,0.00,,,0.00,TxWx,2013-06-20 09:23:00,
2013-06-20 05:28:00,50.0,49.0,30.86,East,83,1.2,1.5,98,0.00,,,0.00,TxWx,2013-06-20 09:28:00,
2013-06-20 05:34:00,50.0,50.0,30.86,East,84,0.0,0.0,99,0.00,,,0.00,TxWx,2013-06-20 09:34:00,
2013-06-20 05:39:00,50.1,50.0,30.86,East,83,0.0,0.0,99,0.00,,,0.00,TxWx,2013-06-20 09:39:00,
2013-06-20 05:44:00,50.4,50.0,30.87,East,83,0.0,0.0,99,0.00,,,0.00,TxWx,2013-06-20 09:44:00,
2013-06-20 05:49:00,50.9,51.0,30.87,East,83,0.0,0.0,99,0.00,,,0.00,TxWx,2013-06-20 09:49:00,
2013-06-20 05:54:00,51.3,51.0,30.87,East,83,0.0,0.0,99,0.00,,,0.00,TxWx,2013-06-20 09:54:00,
2013-06-20 06:00:00,51.8,52.0,30.88,East,83,0.0,0.0,99,0.00,,,0.00,TxWx,2013-06-20 10:00:00,
2013-06-20 06:05:00,52.2,51.0,30.88,East,83,0.0,0.0,98,0.00,,,0.00,TxWx,2013-06-20 10:05:00,
2013-06-20 06:10:00,52.3,51.0,30.88,East,83,0.0,0.0,98,0.00,,,0.00,TxWx,2013-06-20 10:10:00,
2013-06-20 06:15:00,52.4,51.0,30.88,East,83,0.0,0.0,97,0.00,,,0.00,TxWx,2013-06-20 10:15:00,
2013-06-20 06:21:00,52.5,51.0,30.88,East,83,0.0,0.0,97,0.00,,,0.00,TxWx,2013-06-20 10:21:00,
2013-06-20 06:26:00,52.9,52.0,30.89,East,83,1.2,1.2,97,0.00,,,0.00,TxWx,2013-06-20 10:26:00,
2013-06-20 06:31:00,53.2,52.0,30.89,East,83,0.0,0.0,96,0.00,,,0.00,TxWx,2013-06-20 10:31:00,
2013-06-20 06:36:00,53.3,51.0,30.89,East,83,0.0,0.0,95,0.00,,,0.00,TxWx,2013-06-20 10:36:00,
2013-06-20 06:41:00,54.3,52.0,30.89,East,83,0.0,0.0,95,0.00,,,0.00,TxWx,2013-06-20 10:41:00,
2013-06-20 06:47:00,54.9,53.0,30.89,East,83,0.0,0.0,94,0.00,,,0.00,TxWx,2013-06-20 10:47:00,
2013-06-20 06:52:00,55.0,53.0,30.89,East,84,0.0,0.0,92,0.00,,,0.00,TxWx,2013-06-20 10:52:00,
2013-06-20 06:57:00,55.0,52.0,30.90,East,84,1.5,1.5,91,0.00,,,0.00,TxWx,2013-06-20 10:57:00,
2013-06-20 07:02:00,54.8,52.0,30.90,East,84,2.4,2.7,91,0.00,,,0.00,TxWx,2013-06-20 11:02:00,
2013-06-20 07:07:00,55.0,52.0,30.90,East,84,2.7,2.7,91,0.00,,,0.00,TxWx,2013-06-20 11:07:00,
2013-06-20 07:12:00,55.3,52.0,30.90,East,84,2.4,2.4,90,0.00,,,0.00,TxWx,2013-06-20 11:12:00,
2013-06-20 07:17:00,55.9,53.0,30.90,East,83,0.9,0.9,90,0.00,,,0.00,TxWx,2013-06-20 11:17:00,
2013-06-20 07:23:00,56.1,53.0,30.90,East,84,1.2,1.5,89,0.00,,,0.00,TxWx,2013-06-20 11:23:00,
2013-06-20 07:28:00,56.4,52.0,30.90,East,84,2.4,2.7,87,0.00,,,0.00,TxWx,2013-06-20 11:28:00,
2013-06-20 07:33:00,57.1,53.0,30.91,East,84,1.2,1.5,87,0.00,,,0.00,TxWx,2013-06-20 11:33:00,
2013-06-20 07:38:00,58.7,55.0,30.91,East,84,0.3,0.3,86,0.00,,,0.00,TxWx,2013-06-20 11:38:00,
2013-06-20 07:44:00,58.7,54.0,30.91,East,83,1.2,1.2,83,0.00,,,0.00,TxWx,2013-06-20 11:44:00,
2013-06-20 07:49:00,59.3,53.0,30.91,East,82,0.9,1.2,80,0.00,,,0.00,TxWx,2013-06-20 11:49:00,
2013-06-20 07:54:00,60.6,54.0,30.91,East,83,0.9,0.9,79,0.00,,,0.00,TxWx,2013-06-20 11:54:00,
2013-06-20 07:59:00,60.6,54.0,30.91,East,83,1.2,1.2,77,0.00,,,0.00,TxWx,2013-06-20 11:59:00,
2013-06-20 08:05:00,61.4,53.0,30.91,East,83,0.0,0.3,74,0.00,,,0.00,TxWx,2013-06-20 12:05:00,
2013-06-20 08:10:00,61.5,52.0,30.91,East,83,1.2,1.2,74,0.00,,,0.00,TxWx,2013-06-20 12:10:00,
2013-06-20 08:15:00,62.3,53.0,30.91,East,84,0.6,0.9,73,0.00,,,0.00,TxWx,2013-06-20 12:15:00,
2013-06-20 08:20:00,63.4,53.0,30.91,East,85,0.9,1.2,71,0.00,,,0.00,TxWx,2013-06-20 12:20:00,
2013-06-20 08:26:00,63.5,53.0,30.91,East,83,2.4,2.4,70,0.00,,,0.00,TxWx,2013-06-20 12:26:00,
2013-06-20 08:31:00,63.8,53.0,30.91,East,83,2.4,2.7,67,0.00,,,0.00,TxWx,2013-06-20 12:31:00,
2013-06-20 08:36:00,65.1,53.0,30.91,East,83,2.7,2.7,65,0.00,,,0.00,TxWx,2013-06-20 12:36:00,
2013-06-20 08:41:00,65.7,54.0,30.91,East,83,0.3,0.3,65,0.00,,,0.00,TxWx,2013-06-20 12:41:00,
2013-06-20 08:46:00,65.6,53.0,30.91,East,85,1.2,1.2,64,0.00,,,0.00,TxWx,2013-06-20 12:46:00,
2013-06-20 08:51:00,64.8,53.0,30.91,East,84,3.6,3.6,65,0.00,,,0.00,TxWx,2013-06-20 12:51:00,
2013-06-20 08:57:00,65.9,54.0,30.91,East,84,0.6,0.6,66,0.00,,,0.00,TxWx,2013-06-20 12:57:00,
2013-06-20 09:02:00,66.2,54.0,30.91,East,84,0.6,0.6,66,0.00,,,0.00,TxWx,2013-06-20 13:02:00,
2013-06-20 09:07:00,67.0,55.0,30.91,East,84,0.9,0.9,65,0.00,,,0.00,TxWx,2013-06-20 13:07:00,
2013-06-20 09:12:00,67.2,53.0,30.91,East,84,1.8,1.8,62,0.00,,,0.00,TxWx,2013-06-20 13:12:00,
2013-06-20 09:17:00,68.6,55.0,30.91,East,84,0.0,0.3,61,0.00,,,0.00,TxWx,2013-06-20 13:17:00,
2013-06-20 09:23:00,68.3,51.0,30.91,East,84,3.3,3.3,55,0.00,,,0.00,TxWx,2013-06-20 13:23:00,
2013-06-20 09:28:00,68.7,51.0,30.91,East,84,4.5,4.5,52,0.00,,,0.00,TxWx,2013-06-20 13:28:00,
2013-06-20 09:33:00,68.9,51.0,30.91,East,84,1.5,1.5,53,0.00,,,0.00,TxWx,2013-06-20 13:33:00,
2013-06-20 09:38:00,70.2,52.0,30.91,East,85,0.9,0.9,53,0.00,,,0.00,TxWx,2013-06-20 13:38:00,
2013-06-20 09:44:00,70.2,50.0,30.90,East,84,0.0,0.0,50,0.00,,,0.00,TxWx,2013-06-20 13:44:00,
2013-06-20 09:49:00,70.5,50.0,30.91,East,84,1.8,2.1,50,0.00,,,0.00,TxWx,2013-06-20 13:49:00,
2013-06-20 09:54:00,71.0,51.0,30.90,East,85,0.3,0.3,49,0.00,,,0.00,TxWx,2013-06-20 13:54:00,
2013-06-20 09:59:00,71.3,51.0,30.90,East,83,0.0,0.3,49,0.00,,,0.00,TxWx,2013-06-20 13:59:00,
2013-06-20 10:05:00,70.7,49.0,30.90,East,82,1.2,1.2,46,0.00,,,0.00,TxWx,2013-06-20 14:05:00,
2013-06-20 10:10:00,71.7,50.0,30.90,East,86,0.0,0.0,47,0.00,,,0.00,TxWx,2013-06-20 14:10:00,
2013-06-20 10:15:00,71.3,49.0,30.90,East,86,0.6,0.6,46,0.00,,,0.00,TxWx,2013-06-20 14:15:00,
2013-06-20 10:21:00,72.2,51.0,30.90,East,86,4.2,4.2,47,0.00,,,0.00,TxWx,2013-06-20 14:21:00,
2013-06-20 10:26:00,72.3,48.0,30.90,East,87,1.2,1.8,42,0.00,,,0.00,TxWx,2013-06-20 14:26:00,
2013-06-20 10:31:00,72.5,48.0,30.90,East,87,3.6,3.6,42,0.00,,,0.00,TxWx,2013-06-20 14:31:00,
2013-06-20 10:36:00,72.8,50.0,30.91,East,85,0.6,0.9,45,0.00,,,0.00,TxWx,2013-06-20 14:36:00,
2013-06-20 10:41:00,72.0,48.0,30.91,East,86,4.8,5.1,43,0.00,,,0.00,TxWx,2013-06-20 14:41:00,
2013-06-20 10:46:00,72.0,48.0,30.91,East,86,6.9,6.9,43,0.00,,,0.00,TxWx,2013-06-20 14:46:00,
2013-06-20 10:52:00,71.9,48.0,30.91,East,86,3.0,3.0,43,0.00,,,0.00,TxWx,2013-06-20 14:52:00,
2013-06-20 10:57:00,72.6,49.0,30.91,East,84,3.0,3.0,43,0.00,,,0.00,TxWx,2013-06-20 14:57:00,
2013-06-20 11:02:00,73.7,48.0,30.91,East,86,0.9,0.9,41,0.00,,,0.00,TxWx,2013-06-20 15:02:00,
2013-06-20 11:07:00,73.2,46.0,30.91,East,88,3.9,3.9,39,0.00,,,0.00,TxWx,2013-06-20 15:07:00,
2013-06-20 11:12:00,74.2,47.0,30.91,East,83,3.6,4.5,39,0.00,,,0.00,TxWx,2013-06-20 15:12:00,
2013-06-20 11:17:00,75.0,47.0,30.91,East,87,3.9,3.9,38,0.00,,,0.00,TxWx,2013-06-20 15:17:00,
2013-06-20 11:22:00,73.8,47.0,30.91,East,83,0.9,1.2,38,0.00,,,0.00,TxWx,2013-06-20 15:22:00,
2013-06-20 11:27:00,73.9,44.0,30.91,East,86,7.2,7.8,34,0.00,,,0.00,TxWx,2013-06-20 15:27:00,
2013-06-20 11:32:00,73.6,46.0,30.90,East,86,3.9,3.9,37,0.00,,,0.00,TxWx,2013-06-20 15:32:00,
2013-06-20 11:38:00,72.9,45.0,30.91,East,85,6.3,6.3,38,0.00,,,0.00,TxWx,2013-06-20 15:38:00,
2013-06-20 11:43:00,74.3,48.0,30.91,East,85,3.0,3.0,40,0.00,,,0.00,TxWx,2013-06-20 15:43:00,
2013-06-20 11:48:00,74.0,45.0,30.91,East,86,10.5,11.7,36,0.00,,,0.00,TxWx,2013-06-20 15:48:00,
2013-06-20 11:53:00,73.6,47.0,30.91,East,86,2.7,3.0,38,0.00,,,0.00,TxWx,2013-06-20 15:53:00,
2013-06-20 11:59:00,74.1,47.0,30.90,East,86,6.6,6.6,38,0.00,,,0.00,TxWx,2013-06-20 15:59:00,
2013-06-20 12:04:00,74.4,47.0,30.90,East,85,6.6,7.5,38,0.00,,,0.00,TxWx,2013-06-20 16:04:00,
2013-06-20 12:09:00,74.9,48.0,30.91,East,87,6.9,7.2,39,0.00,,,0.00,TxWx,2013-06-20 16:09:00,
2013-06-20 12:14:00,74.4,45.0,30.91,East,87,6.9,6.9,36,0.00,,,0.00,TxWx,2013-06-20 16:14:00,
2013-06-20 12:19:00,74.3,47.0,30.91,East,86,10.5,10.5,39,0.00,,,0.00,TxWx,2013-06-20 16:19:00,
2013-06-20 12:25:00,74.6,47.0,30.91,East,88,9.9,9.9,38,0.00,,,0.00,TxWx,2013-06-20 16:25:00,
2013-06-20 12:30:00,75.5,48.0,30.91,East,86,4.5,6.0,37,0.00,,,0.00,TxWx,2013-06-20 16:30:00,
2013-06-20 12:35:00,75.6,48.0,30.91,East,87,5.4,6.3,38,0.00,,,0.00,TxWx,2013-06-20 16:35:00,
2013-06-20 12:40:00,74.7,47.0,30.90,East,85,7.5,7.8,37,0.00,,,0.00,TxWx,2013-06-20 16:40:00,
2013-06-20 12:45:00,74.7,48.0,30.90,East,85,5.7,6.6,39,0.00,,,0.00,TxWx,2013-06-20 16:45:00,
2013-06-20 12:50:00,75.2,46.0,30.90,East,87,8.4,8.4,36,0.00,,,0.00,TxWx,2013-06-20 16:50:00,
2013-06-20 12:55:00,74.7,46.0,30.90,East,87,5.1,6.0,36,0.00,,,0.00,TxWx,2013-06-20 16:55:00,
2013-06-20 13:00:00,75.9,49.0,30.90,East,86,6.6,7.2,39,0.00,,,0.00,TxWx,2013-06-20 17:00:00,
2013-06-20 13:05:00,75.4,47.0,30.90,East,86,7.5,7.8,37,0.00,,,0.00,TxWx,2013-06-20 17:05:00,
2013-06-20 13:10:00,76.1,48.0,30.90,East,87,0.0,0.3,37,0.00,,,0.00,TxWx,2013-06-20 17:10:00,
2013-06-20 13:15:00,75.3,47.0,30.90,East,86,7.5,7.8,37,0.00,,,0.00,TxWx,2013-06-20 17:15:00,
2013-06-20 13:21:00,74.8,47.0,30.90,East,86,3.0,3.9,37,0.00,,,0.00,TxWx,2013-06-20 17:21:00,
2013-06-20 13:26:00,75.6,51.0,30.90,East,86,3.0,3.0,41,0.00,,,0.00,TxWx,2013-06-20 17:26:00,
2013-06-20 13:31:00,75.6,51.0,30.89,East,86,8.4,8.4,42,0.00,,,0.00,TxWx,2013-06-20 17:31:00,
2013-06-20 13:36:00,75.5,50.0,30.89,East,85,3.9,4.2,41,0.00,,,0.00,TxWx,2013-06-20 17:36:00,
2013-06-20 13:41:00,75.1,50.0,30.89,East,85,7.2,7.2,42,0.00,,,0.00,TxWx,2013-06-20 17:41:00,
2013-06-20 13:46:00,74.8,50.0,30.89,East,85,10.2,10.2,42,0.00,,,0.00,TxWx,2013-06-20 17:46:00,
2013-06-20 13:51:00,74.5,48.0,30.89,East,85,9.0,9.0,41,0.00,,,0.00,TxWx,2013-06-20 17:51:00,
2013-06-20 13:56:00,74.4,48.0,30.89,East,86,12.0,12.6,40,0.00,,,0.00,TxWx,2013-06-20 17:56:00,
2013-06-20 14:01:00,74.5,48.0,30.89,East,86,3.9,4.5,40,0.00,,,0.00,TxWx,2013-06-20 18:01:00,
2013-06-20 14:06:00,74.8,50.0,30.89,East,86,7.8,8.4,41,0.00,,,0.00,TxWx,2013-06-20 18:06:00,
2013-06-20 14:12:00,74.8,49.0,30.89,East,86,8.4,8.7,40,0.00,,,0.00,TxWx,2013-06-20 18:12:00,
2013-06-20 14:17:00,74.9,50.0,30.89,East,85,9.3,9.3,41,0.00,,,0.00,TxWx,2013-06-20 18:17:00,
2013-06-20 14:22:00,75.1,49.0,30.89,East,86,6.6,6.6,40,0.00,,,0.00,TxWx,2013-06-20 18:22:00,
2013-06-20 14:27:00,76.2,52.0,30.89,East,86,6.0,6.6,44,0.00,,,0.00,TxWx,2013-06-20 18:27:00,
2013-06-20 14:33:00,75.4,50.0,30.89,East,86,3.3,3.9,42,0.00,,,0.00,TxWx,2013-06-20 18:33:00,
2013-06-20 14:38:00,74.8,49.0,30.89,East,86,9.0,9.0,40,0.00,,,0.00,TxWx,2013-06-20 18:38:00,
2013-06-20 14:43:00,75.2,50.0,30.88,East,85,8.1,8.4,42,0.00,,,0.00,TxWx,2013-06-20 18:43:00,
2013-06-20 14:48:00,75.1,49.0,30.88,East,85,4.8,5.1,40,0.00,,,0.00,TxWx,2013-06-20 18:48:00,
2013-06-20 14:53:00,76.1,51.0,30.88,East,87,3.0,3.6,41,0.00,,,0.00,TxWx,2013-06-20 18:53:00,
2013-06-20 14:58:00,75.9,50.0,30.88,East,85,8.4,8.4,40,0.00,,,0.00,TxWx,2013-06-20 18:58:00,
2013-06-20 15:04:00,75.2,49.0,30.87,East,85,9.0,10.2,41,0.00,,,0.00,TxWx,2013-06-20 19:04:00,
2013-06-20 15:09:00,75.2,50.0,30.87,East,86,8.1,8.4,41,0.00,,,0.00,TxWx,2013-06-20 19:09:00,
2013-06-20 15:14:00,75.4,51.0,30.87,East,86,11.4,13.8,43,0.00,,,0.00,TxWx,2013-06-20 19:14:00,
2013-06-20 15:19:00,74.8,51.0,30.87,East,85,14.1,16.8,43,0.00,,,0.00,TxWx,2013-06-20 19:19:00,
2013-06-20 15:24:00,75.1,50.0,30.87,East,85,4.8,4.8,42,0.00,,,0.00,TxWx,2013-06-20 19:24:00,
2013-06-20 15:30:00,75.3,50.0,30.87,East,85,10.8,10.8,41,0.00,,,0.00,TxWx,2013-06-20 19:30:00,
2013-06-20 15:35:00,75.0,50.0,30.87,East,86,4.2,4.2,41,0.00,,,0.00,TxWx,2013-06-20 19:35:00,
2013-06-20 15:40:00,75.1,50.0,30.87,East,85,6.6,6.6,42,0.00,,,0.00,TxWx,2013-06-20 19:40:00,
2013-06-20 15:45:00,75.4,52.0,30.87,East,85,9.9,9.9,44,0.00,,,0.00,TxWx,2013-06-20 19:45:00,
2013-06-20 15:50:00,75.1,52.0,30.87,East,85,11.4,11.7,46,0.00,,,0.00,TxWx,2013-06-20 19:50:00,
2013-06-20 15:56:00,75.2,54.0,30.87,East,86,8.1,8.1,48,0.00,,,0.00,TxWx,2013-06-20 19:56:00,
2013-06-20 16:01:00,75.3,53.0,30.87,East,86,6.3,6.6,47,0.00,,,0.00,TxWx,2013-06-20 20:01:00,
2013-06-20 16:03:00,61.6,57.0,30.92,East,83,1.8,2.1,83,0.00,,,0.00,TxWx,2013-06-20 20:03:00,
2013-06-20 16:04:00,61.6,57.0,30.92,East,83,2.4,2.4,83,0.00,,,0.00,TxWx,2013-06-20 20:04:00,
2013-06-20 16:05:00,61.7,57.0,30.92,East,82,0.9,1.2,84,0.00,,,0.00,TxWx,2013-06-20 20:05:00,
2013-06-20 16:06:00,75.3,54.0,30.87,East,86,4.8,6.9,49,0.00,,,0.00,TxWx,2013-06-20 20:06:00,
2013-06-20 16:07:00,61.7,57.0,30.92,East,83,0.6,0.9,84,0.00,,,0.00,TxWx,2013-06-20 20:07:00,
2013-06-20 16:08:00,61.6,57.0,30.92,East,83,0.9,0.9,84,0.00,,,0.00,TxWx,2013-06-20 20:08:00,
2013-06-20 16:09:00,61.6,57.0,30.92,East,84,0.9,0.9,84,0.00,,,0.00,TxWx,2013-06-20 20:09:00,
2013-06-20 16:10:00,61.6,57.0,30.92,East,83,0.9,0.9,84,0.00,,,0.00,TxWx,2013-06-20 20:10:00,
2013-06-20 16:11:00,61.6,57.0,30.92,East,83,0.0,0.3,84,0.00,,,0.00,TxWx,2013-06-20 20:11:00,
2013-06-20 16:12:00,74.6,53.0,30.87,East,86,10.5,10.5,47,0.00,,,0.00,TxWx,2013-06-20 20:12:00,
2013-06-20 16:13:00,61.6,57.0,30.92,East,83,0.3,0.3,84,0.00,,,0.00,TxWx,2013-06-20 20:13:00,
2013-06-20 16:14:00,61.6,57.0,30.92,East,83,0.0,0.0,84,0.00,,,0.00,TxWx,2013-06-20 20:14:00,
2013-06-20 16:15:00,61.6,57.0,30.92,East,83,1.8,1.8,84,0.00,,,0.00,TxWx,2013-06-20 20:15:00,
2013-06-20 16:16:00,61.5,56.0,30.92,East,83,2.1,2.1,84,0.00,,,0.00,TxWx,2013-06-20 20:16:00,
2013-06-20 16:17:00,75.4,54.0,30.87,East,85,8.4,9.0,48,0.00,,,0.00,TxWx,2013-06-20 20:17:00,
2013-06-20 16:18:00,61.4,56.0,30.92,East,83,0.6,0.6,84,0.00,,,0.00,TxWx,2013-06-20 20:18:00,
2013-06-20 16:19:00,61.3,56.0,30.92,East,82,0.0,0.0,84,0.00,,,0.00,TxWx,2013-06-20 20:19:00,
2013-06-20 16:20:00,61.3,56.0,30.92,East,83,0.0,0.3,84,0.00,,,0.00,TxWx,2013-06-20 20:20:00,
2013-06-20 16:21:00,61.3,56.0,30.92,East,83,0.6,0.9,84,0.00,,,0.00,TxWx,2013-06-20 20:21:00,
2013-06-20 16:22:00,75.7,54.0,30.87,East,86,7.2,7.2,47,0.00,,,0.00,TxWx,2013-06-20 20:22:00,
2013-06-20 16:23:00,61.3,56.0,30.92,East,83,0.9,1.2,84,0.00,,,0.00,TxWx,2013-06-20 20:23:00,
2013-06-20 16:24:00,61.3,56.0,30.92,East,83,0.9,0.9,84,0.00,,,0.00,TxWx,2013-06-20 20:24:00,
2013-06-20 16:25:00,61.2,56.0,30.92,East,83,0.6,0.6,84,0.00,,,0.00,TxWx,2013-06-20 20:25:00,
2013-06-20 16:26:00,61.2,56.0,30.92,East,83,0.0,0.3,84,0.00,,,0.00,TxWx,2013-06-20 20:26:00,
2013-06-20 16:27:00,75.2,53.0,30.87,East,85,12.0,12.0,47,0.00,,,0.00,TxWx,2013-06-20 20:27:00,
2013-06-20 16:28:00,61.1,56.0,30.92,East,83,0.0,0.0,84,0.00,,,0.00,TxWx,2013-06-20 20:28:00,
2013-06-20 16:29:00,61.1,56.0,30.92,East,83,0.0,0.0,85,0.00,,,0.00,TxWx,2013-06-20 20:29:00,
2013-06-20 16:30:00,61.1,56.0,30.92,East,83,0.0,0.0,84,0.00,,,0.00,TxWx,2013-06-20 20:30:00,
2013-06-20 16:31:00,61.0,56.0,30.92,East,83,0.0,0.0,84,0.00,,,0.00,TxWx,2013-06-20 20:31:00,
2013-06-20 16:32:00,61.0,56.0,30.93,East,83,0.0,0.0,84,0.00,,,0.00,TxWx,2013-06-20 20:32:00,
2013-06-20 16:33:00,74.9,54.0,30.87,East,85,11.1,11.1,49,0.00,,,0.00,TxWx,2013-06-20 20:33:00,
2013-06-20 16:34:00,60.8,56.0,30.92,East,83,0.0,0.0,85,0.00,,,0.00,TxWx,2013-06-20 20:34:00,
2013-06-20 16:36:00,60.8,56.0,30.92,East,83,0.0,0.0,85,0.00,,,0.00,TxWx,2013-06-20 20:36:00,
2013-06-20 16:37:00,60.7,56.0,30.92,East,83,0.6,0.6,85,0.00,,,0.00,TxWx,2013-06-20 20:37:00,
2013-06-20 16:38:00,74.8,55.0,30.87,East,85,6.3,7.5,50,0.00,,,0.00,TxWx,2013-06-20 20:38:00,
2013-06-20 16:39:00,60.5,56.0,30.92,East,83,0.0,0.0,85,0.00,,,0.00,TxWx,2013-06-20 20:39:00,
2013-06-20 16:40:00,60.5,55.0,30.93,East,84,0.0,0.0,85,0.00,,,0.00,TxWx,2013-06-20 20:40:00,
2013-06-20 16:41:00,60.3,56.0,30.93,East,84,0.6,0.6,86,0.00,,,0.00,TxWx,2013-06-20 20:41:00,
2013-06-20 16:42:00,60.3,56.0,30.93,East,84,0.0,0.0,86,0.00,,,0.00,TxWx,2013-06-20 20:42:00,
2013-06-20 16:43:00,74.8,56.0,30.87,East,86,13.2,13.2,51,0.00,,,0.00,TxWx,2013-06-20 20:43:00,
2013-06-20 16:44:00,60.1,56.0,30.93,East,83,0.0,0.0,86,0.00,,,0.00,TxWx,2013-06-20 20:44:00,
2013-06-20 16:45:00,60.1,56.0,30.93,East,83,0.0,0.0,87,0.00,,,0.00,TxWx,2013-06-20 20:45:00,
2013-06-20 16:46:00,60.0,56.0,30.93,East,84,0.0,0.0,87,0.00,,,0.00,TxWx,2013-06-20 20:46:00,
2013-06-20 16:47:00,59.9,56.0,30.93,East,84,0.0,0.0,87,0.00,,,0.00,TxWx,2013-06-20 20:47:00,
2013-06-20 16:48:00,74.6,56.0,30.87,East,85,8.4,8.4,51,0.00,,,0.00,TxWx,2013-06-20 20:48:00,
2013-06-20 16:49:00,59.8,56.0,30.93,East,84,0.0,0.0,88,0.00,,,0.00,TxWx,2013-06-20 20:49:00,
2013-06-20 16:50:00,59.8,56.0,30.93,East,84,0.0,0.0,88,0.00,,,0.00,TxWx,2013-06-20 20:50:00,
2013-06-20 16:53:00,74.5,55.0,30.87,East,85,7.8,7.8,51,0.00,,,0.00,TxWx,2013-06-20 20:53:00,
2013-06-20 16:58:00,74.0,54.0,30.87,East,86,8.1,9.6,50,0.00,,,0.00,TxWx,2013-06-20 20:58:00,
2013-06-20 17:03:00,73.6,54.0,30.87,East,85,10.5,10.5,49,0.00,,,0.00,TxWx,2013-06-20 21:03:00,
2013-06-20 17:08:00,73.6,54.0,30.87,East,85,7.2,7.2,50,0.00,,,0.00,TxWx,2013-06-20 21:08:00,
2013-06-20 17:13:00,73.7,54.0,30.87,East,85,12.6,12.9,50,0.00,,,0.00,TxWx,2013-06-20 21:13:00,
2013-06-20 17:18:00,73.9,55.0,30.87,East,85,4.5,6.6,51,0.00,,,0.00,TxWx,2013-06-20 21:18:00,
2013-06-20 17:23:00,73.6,54.0,30.87,East,85,9.0,10.8,49,0.00,,,0.00,TxWx,2013-06-20 21:23:00,
2013-06-20 17:28:00,73.7,54.0,30.87,East,86,7.5,9.3,50,0.00,,,0.00,TxWx,2013-06-20 21:28:00,
2013-06-20 17:33:00,73.5,54.0,30.86,East,85,7.8,9.6,51,0.00,,,0.00,TxWx,2013-06-20 21:33:00,
2013-06-20 17:38:00,73.7,55.0,30.86,East,85,7.8,9.0,51,0.00,,,0.00,TxWx,2013-06-20 21:38:00,
2013-06-20 17:44:00,73.6,55.0,30.86,East,86,10.2,10.2,52,0.00,,,0.00,TxWx,2013-06-20 21:44:00,
2013-06-20 17:49:00,73.6,55.0,30.86,East,86,9.0,9.0,53,0.00,,,0.00,TxWx,2013-06-20 21:49:00,
2013-06-20 17:54:00,73.8,56.0,30.87,East,84,3.6,4.5,54,0.00,,,0.00,TxWx,2013-06-20 21:54:00,
2013-06-20 17:59:00,73.4,56.0,30.87,East,85,9.0,9.9,56,0.00,,,0.00,TxWx,2013-06-20 21:59:00,
2013-06-20 18:04:00,73.3,57.0,30.87,East,85,6.0,6.0,57,0.00,,,0.00,TxWx,2013-06-20 22:04:00,
2013-06-20 18:10:00,72.9,57.0,30.87,East,85,9.0,9.0,57,0.00,,,0.00,TxWx,2013-06-20 22:10:00,
2013-06-20 18:15:00,72.7,57.0,30.87,East,85,9.0,9.0,58,0.00,,,0.00,TxWx,2013-06-20 22:15:00,
2013-06-20 18:20:00,72.9,57.0,30.88,East,85,5.7,5.7,58,0.00,,,0.00,TxWx,2013-06-20 22:20:00,
2013-06-20 18:25:00,73.0,58.0,30.88,East,86,7.2,7.2,59,0.00,,,0.00,TxWx,2013-06-20 22:25:00,
2013-06-20 18:31:00,72.7,58.0,30.88,East,85,8.4,8.7,59,0.00,,,0.00,TxWx,2013-06-20 22:31:00,
2013-06-20 18:36:00,72.4,57.0,30.88,East,85,8.4,8.4,59,0.00,,,0.00,TxWx,2013-06-20 22:36:00,
2013-06-20 18:41:00,72.3,57.0,30.88,East,84,6.9,7.5,59,0.00,,,0.00,TxWx,2013-06-20 22:41:00,
2013-06-20 18:46:00,72.3,57.0,30.88,East,84,7.5,8.4,60,0.00,,,0.00,TxWx,2013-06-20 22:46:00,
2013-06-20 18:51:00,71.9,57.0,30.88,East,84,10.5,11.1,60,0.00,,,0.00,TxWx,2013-06-20 22:51:00,
2013-06-20 18:56:00,71.8,58.0,30.88,East,83,10.2,10.2,61,0.00,,,0.00,TxWx,2013-06-20 22:56:00,
2013-06-20 19:02:00,71.4,57.0,30.88,East,84,9.6,9.6,61,0.00,,,0.00,TxWx,2013-06-20 23:02:00,
2013-06-20 19:07:00,71.3,57.0,30.88,East,84,6.0,6.0,62,0.00,,,0.00,TxWx,2013-06-20 23:07:00,
2013-06-20 19:12:00,71.1,57.0,30.89,East,84,6.0,7.8,62,0.00,,,0.00,TxWx,2013-06-20 23:12:00,
2013-06-20 19:17:00,70.8,58.0,30.89,East,84,10.5,10.5,63,0.00,,,0.00,TxWx,2013-06-20 23:17:00,
2013-06-20 19:23:00,70.5,58.0,30.89,East,84,12.3,13.5,63,0.00,,,0.00,TxWx,2013-06-20 23:23:00,
2013-06-20 19:28:00,70.5,57.0,30.89,East,84,8.7,10.5,63,0.00,,,0.00,TxWx,2013-06-20 23:28:00,
2013-06-20 19:33:00,70.1,57.0,30.89,East,83,7.8,7.8,64,0.00,,,0.00,TxWx,2013-06-20 23:33:00,
2013-06-20 19:38:00,69.9,57.0,30.89,East,84,6.3,7.2,64,0.00,,,0.00,TxWx,2013-06-20 23:38:00,
2013-06-20 19:43:00,69.5,57.0,30.89,East,84,7.2,8.1,64,0.00,,,0.00,TxWx,2013-06-20 23:43:00,
2013-06-20 19:49:00,69.4,56.0,30.89,East,83,6.6,6.6,64,0.00,,,0.00,TxWx,2013-06-20 23:49:00,
2013-06-20 19:54:00,69.0,56.0,30.90,East,83,4.5,4.5,64,0.00,,,0.00,TxWx,2013-06-20 23:54:00,
2013-06-20 19:59:00,68.7,56.0,30.90,East,83,3.6,3.9,64,0.00,,,0.00,TxWx,2013-06-20 23:59:00,
2013-06-20 20:04:00,68.5,55.0,30.90,East,84,4.2,4.8,64,0.00,,,0.00,TxWx,2013-06-21 00:04:00,
2013-06-20 20:09:00,68.1,55.0,30.90,East,83,4.8,6.0,64,0.00,,,0.00,TxWx,2013-06-21 00:09:00,
2013-06-20 20:14:00,67.9,56.0,30.90,East,83,1.8,1.8,65,0.00,,,0.00,TxWx,2013-06-21 00:14:00,
2013-06-20 20:20:00,67.6,56.0,30.90,East,83,5.7,6.3,66,0.00,,,0.00,TxWx,2013-06-21 00:20:00,
2013-06-20 20:25:00,67.5,55.0,30.90,East,83,2.4,2.4,66,0.00,,,0.00,TxWx,2013-06-21 00:25:00,
2013-06-20 20:30:00,67.1,55.0,30.90,East,83,3.6,3.6,66,0.00,,,0.00,TxWx,2013-06-21 00:30:00,
2013-06-20 20:35:00,67.0,55.0,30.90,East,83,7.8,7.8,66,0.00,,,0.00,TxWx,2013-06-21 00:35:00,
2013-06-20 20:40:00,66.8,55.0,30.90,East,83,6.0,6.3,66,0.00,,,0.00,TxWx,2013-06-21 00:40:00,
2013-06-20 20:46:00,66.5,55.0,30.90,East,83,3.9,3.9,67,0.00,,,0.00,TxWx,2013-06-21 00:46:00,
2013-06-20 20:51:00,66.4,55.0,30.90,East,83,4.5,5.1,67,0.00,,,0.00,TxWx,2013-06-21 00:51:00,
2013-06-20 20:56:00,66.2,55.0,30.90,East,83,5.7,6.6,67,0.00,,,0.00,TxWx,2013-06-21 00:56:00,
2013-06-20 21:01:00,66.1,55.0,30.90,East,83,8.1,9.3,67,0.00,,,0.00,TxWx,2013-06-21 01:01:00,
2013-06-20 21:06:00,66.0,55.0,30.90,East,84,4.8,4.8,68,0.00,,,0.00,TxWx,2013-06-21 01:06:00,
2013-06-20 21:11:00,65.9,55.0,30.90,East,83,4.2,4.5,68,0.00,,,0.00,TxWx,2013-06-21 01:11:00,
2013-06-20 21:16:00,65.7,55.0,30.90,East,84,4.8,4.8,68,0.00,,,0.00,TxWx,2013-06-21 01:16:00,
2013-06-20 21:22:00,65.4,54.0,30.90,East,83,5.1,5.7,69,0.00,,,0.00,TxWx,2013-06-21 01:22:00,
2013-06-20 21:27:00,65.3,55.0,30.91,East,83,4.5,4.5,70,0.00,,,0.00,TxWx,2013-06-21 01:27:00,
2013-06-20 21:32:00,65.1,55.0,30.91,East,83,7.5,7.5,70,0.00,,,0.00,TxWx,2013-06-21 01:32:00,
2013-06-20 21:37:00,65.0,55.0,30.91,East,83,5.4,5.4,71,0.00,,,0.00,TxWx,2013-06-21 01:37:00,
2013-06-20 21:43:00,64.7,56.0,30.91,East,83,4.8,4.8,72,0.00,,,0.00,TxWx,2013-06-21 01:43:00,
2013-06-20 21:48:00,64.5,56.0,30.91,East,83,3.0,3.0,73,0.00,,,0.00,TxWx,2013-06-21 01:48:00,
2013-06-20 21:53:00,64.4,55.0,30.91,East,84,2.4,2.7,73,0.00,,,0.00,TxWx,2013-06-21 01:53:00,
2013-06-20 21:58:00,64.2,56.0,30.91,East,83,5.7,5.7,74,0.00,,,0.00,TxWx,2013-06-21 01:58:00,
2013-06-20 22:03:00,64.0,56.0,30.91,East,83,1.5,1.8,75,0.00,,,0.00,TxWx,2013-06-21 02:03:00,
2013-06-20 22:09:00,63.9,56.0,30.91,East,83,2.1,2.4,75,0.00,,,0.00,TxWx,2013-06-21 02:09:00,
2013-06-20 22:14:00,63.9,56.0,30.91,East,83,2.1,3.0,75,0.00,,,0.00,TxWx,2013-06-21 02:14:00,
2013-06-20 22:19:00,63.7,56.0,30.92,East,83,2.1,2.1,76,0.00,,,0.00,TxWx,2013-06-21 02:19:00,
2013-06-20 22:24:00,63.6,56.0,30.91,East,83,0.9,1.2,76,0.00,,,0.00,TxWx,2013-06-21 02:24:00,
2013-06-20 22:29:00,63.6,56.0,30.91,East,83,2.1,2.4,76,0.00,,,0.00,TxWx,2013-06-21 02:29:00,
2013-06-20 22:34:00,63.5,56.0,30.91,East,83,3.0,3.0,77,0.00,,,0.00,TxWx,2013-06-21 02:34:00,
2013-06-20 22:40:00,63.4,55.0,30.91,East,84,0.6,0.6,77,0.00,,,0.00,TxWx,2013-06-21 02:40:00,
2013-06-20 22:45:00,63.3,56.0,30.91,East,83,2.4,2.4,78,0.00,,,0.00,TxWx,2013-06-21 02:45:00,
2013-06-20 22:50:00,63.1,56.0,30.91,East,83,3.0,3.3,78,0.00,,,0.00,TxWx,2013-06-21 02:50:00,
2013-06-20 22:55:00,62.9,56.0,30.91,East,83,4.8,4.8,79,0.00,,,0.00,TxWx,2013-06-21 02:55:00,
2013-06-20 23:01:00,62.8,56.0,30.91,East,83,6.9,7.5,79,0.00,,,0.00,TxWx,2013-06-21 03:01:00,
2013-06-20 23:06:00,62.6,56.0,30.91,East,83,2.1,2.1,79,0.00,,,0.00,TxWx,2013-06-21 03:06:00,
2013-06-20 23:11:00,62.5,56.0,30.91,East,83,1.2,1.2,79,0.00,,,0.00,TxWx,2013-06-21 03:11:00,
2013-06-20 23:16:00,62.4,56.0,30.91,East,83,2.1,2.4,80,0.00,,,0.00,TxWx,2013-06-21 03:16:00,
2013-06-20 23:21:00,62.5,57.0,30.92,East,83,0.0,0.0,80,0.00,,,0.00,TxWx,2013-06-21 03:21:00,
2013-06-20 23:27:00,62.3,56.0,30.91,East,83,0.0,0.0,80,0.00,,,0.00,TxWx,2013-06-21 03:27:00,
2013-06-20 23:32:00,62.1,56.0,30.92,East,83,1.2,1.5,81,0.00,,,0.00,TxWx,2013-06-21 03:32:00,
2013-06-20 23:37:00,62.0,56.0,30.92,East,83,0.9,0.9,81,0.00,,,0.00,TxWx,2013-06-21 03:37:00,
2013-06-20 23:42:00,62.0,56.0,30.92,East,83,2.7,3.0,82,0.00,,,0.00,TxWx,2013-06-21 03:42:00,
2013-06-20 23:48:00,61.9,56.0,30.92,East,83,1.2,1.2,82,0.00,,,0.00,TxWx,2013-06-21 03:48:00,
2013-06-20 23:53:00,61.7,56.0,30.92,East,83,2.4,2.4,82,0.00,,,0.00,TxWx,2013-06-21 03:53:00,
2013-06-20 23:58:00,61.7,57.0,30.92,East,83,2.4,2.4,83,0.00,,,0.00,TxWx,2013-06-21 03:58:00,